sensor_id;sensor_type;location;lat;lon;timestamp;pressure;altitude;pressure_sealevel;temperature;humidity
51417;BME280;50158;51.528;6.982;2022-12-29T00:00:12;67480;;;10.26;100
51417;BME280;50158;51.528;6.982;2022-12-29T00:01:12;67480;;;10.22;100
51417;BME280;50158;51.528;6.982;2022-12-29T00:02:12;67480;;;10.27;100
51417;BME280;50158;51.528;6.982;2022-12-29T00:03:13;67480;;;10.26;100
51417;BME280;50158;51.528;6.982;2022-12-29T00:04:13;67490;;;10.32;100
51417;BME280;50158;51.528;6.982;2022-12-29T00:05:12;67490;;;10.36;100
51417;BME280;50158;51.528;6.982;2022-12-29T00:06:13;67490;;;10.32;100
51417;BME280;50158;51.528;6.982;2022-12-29T00:07:12;67510;;;10.5;100
51417;BME280;50158;51.528;6.982;2022-12-29T00:08:12;67530;;;10.71;100
51417;BME280;50158;51.528;6.982;2022-12-29T00:09:13;67530;;;10.72;100
51417;BME280;50158;51.528;6.982;2022-12-29T00:10:12;67510;;;10.53;100
51417;BME280;50158;51.528;6.982;2022-12-29T00:11:15;67520;;;10.64;100
51417;BME280;50158;51.528;6.982;2022-12-29T00:12:12;67510;;;10.52;100
51417;BME280;50158;51.528;6.982;2022-12-29T00:13:13;67510;;;10.51;100
51417;BME280;50158;51.528;6.982;2022-12-29T00:14:12;67500;;;10.46;100
51417;BME280;50158;51.528;6.982;2022-12-29T00:15:13;67590;;;11.22;100
51417;BME280;50158;51.528;6.982;2022-12-29T00:16:13;67530;;;10.76;100
51417;BME280;50158;51.528;6.982;2022-12-29T00:17:13;67500;;;10.41;100
51417;BME280;50158;51.528;6.982;2022-12-29T00:18:13;67470;;;10.13;100
51417;BME280;50158;51.528;6.982;2022-12-29T00:19:13;67460;;;10.07;100
51417;BME280;50158;51.528;6.982;2022-12-29T00:20:12;67460;;;10.02;100
51417;BME280;50158;51.528;6.982;2022-12-29T00:21:13;67520;;;10.62;100
51417;BME280;50158;51.528;6.982;2022-12-29T00:22:13;67610;;;11.42;100
51417;BME280;50158;51.528;6.982;2022-12-29T00:23:12;67490;;;10.35;100
51417;BME280;50158;51.528;6.982;2022-12-29T00:24:15;67480;;;10.21;100
51417;BME280;50158;51.528;6.982;2022-12-29T00:25:12;67460;;;10.1;100
51417;BME280;50158;51.528;6.982;2022-12-29T00:26:14;67460;;;10.06;100
51417;BME280;50158;51.528;6.982;2022-12-29T00:27:13;67490;;;10.34;100
51417;BME280;50158;51.528;6.982;2022-12-29T00:28:13;67470;;;10.2;100
51417;BME280;50158;51.528;6.982;2022-12-29T00:29:12;67470;;;10.13;100
51417;BME280;50158;51.528;6.982;2022-12-29T00:30:14;67470;;;10.12;100
51417;BME280;50158;51.528;6.982;2022-12-29T00:31:13;67470;;;10.1;100
51417;BME280;50158;51.528;6.982;2022-12-29T00:32:13;67470;;;10.12;100
51417;BME280;50158;51.528;6.982;2022-12-29T00:33:13;67460;;;10.09;100
51417;BME280;50158;51.528;6.982;2022-12-29T00:34:13;67470;;;10.12;100
51417;BME280;50158;51.528;6.982;2022-12-29T00:35:14;67460;;;10.02;100
51417;BME280;50158;51.528;6.982;2022-12-29T00:36:15;67440;;;9.92;100
51417;BME280;50158;51.528;6.982;2022-12-29T00:38:13;67450;;;9.97;100
51417;BME280;50158;51.528;6.982;2022-12-29T00:39:14;67450;;;9.99;100
51417;BME280;50158;51.528;6.982;2022-12-29T00:40:13;67450;;;9.97;100
51417;BME280;50158;51.528;6.982;2022-12-29T00:41:13;67450;;;9.97;100
51417;BME280;50158;51.528;6.982;2022-12-29T00:42:12;67450;;;9.93;100
51417;BME280;50158;51.528;6.982;2022-12-29T00:43:13;67450;;;9.99;100
51417;BME280;50158;51.528;6.982;2022-12-29T00:44:13;67460;;;10.06;100
51417;BME280;50158;51.528;6.982;2022-12-29T00:45:12;67460;;;10.06;100
51417;BME280;50158;51.528;6.982;2022-12-29T00:46:13;67460;;;10.02;100
51417;BME280;50158;51.528;6.982;2022-12-29T00:47:13;67450;;;10.02;100
51417;BME280;50158;51.528;6.982;2022-12-29T00:48:12;67450;;;9.97;100
51417;BME280;50158;51.528;6.982;2022-12-29T00:49:13;67440;;;9.91;100
51417;BME280;50158;51.528;6.982;2022-12-29T00:50:12;67450;;;9.93;100
51417;BME280;50158;51.528;6.982;2022-12-29T00:51:13;67450;;;9.93;100
51417;BME280;50158;51.528;6.982;2022-12-29T00:52:13;67450;;;9.97;100
51417;BME280;50158;51.528;6.982;2022-12-29T00:53:13;67440;;;9.92;100
51417;BME280;50158;51.528;6.982;2022-12-29T00:54:13;67440;;;9.93;100
51417;BME280;50158;51.528;6.982;2022-12-29T00:55:12;67450;;;9.95;100
51417;BME280;50158;51.528;6.982;2022-12-29T00:57:13;67460;;;10.05;100
51417;BME280;50158;51.528;6.982;2022-12-29T00:58:12;67450;;;10.01;100
51417;BME280;50158;51.528;6.982;2022-12-29T00:59:13;67460;;;10.06;100
51417;BME280;50158;51.528;6.982;2022-12-29T01:00:12;67460;;;10.04;100
51417;BME280;50158;51.528;6.982;2022-12-29T01:01:12;67450;;;9.97;100
51417;BME280;50158;51.528;6.982;2022-12-29T01:02:12;67460;;;10.05;100
51417;BME280;50158;51.528;6.982;2022-12-29T01:03:13;67450;;;9.99;100
51417;BME280;50158;51.528;6.982;2022-12-29T01:04:12;67450;;;10;100
51417;BME280;50158;51.528;6.982;2022-12-29T01:05:13;67450;;;9.99;100
51417;BME280;50158;51.528;6.982;2022-12-29T01:06:13;67450;;;10;100
51417;BME280;50158;51.528;6.982;2022-12-29T01:07:13;67450;;;9.96;100
51417;BME280;50158;51.528;6.982;2022-12-29T01:08:12;67440;;;9.92;100
51417;BME280;50158;51.528;6.982;2022-12-29T01:09:13;67440;;;9.91;100
51417;BME280;50158;51.528;6.982;2022-12-29T01:10:13;67460;;;10.04;100
51417;BME280;50158;51.528;6.982;2022-12-29T01:11:13;67450;;;9.93;100
51417;BME280;50158;51.528;6.982;2022-12-29T01:12:13;67430;;;9.81;100
51417;BME280;50158;51.528;6.982;2022-12-29T01:13:13;67430;;;9.78;100
51417;BME280;50158;51.528;6.982;2022-12-29T01:14:13;67430;;;9.77;100
51417;BME280;50158;51.528;6.982;2022-12-29T01:15:14;67430;;;9.82;100
51417;BME280;50158;51.528;6.982;2022-12-29T01:16:12;67430;;;9.82;100
51417;BME280;50158;51.528;6.982;2022-12-29T01:17:13;67440;;;9.89;100
51417;BME280;50158;51.528;6.982;2022-12-29T01:18:12;67440;;;9.92;100
51417;BME280;50158;51.528;6.982;2022-12-29T01:19:13;67440;;;9.89;100
51417;BME280;50158;51.528;6.982;2022-12-29T01:20:13;67450;;;9.93;100
51417;BME280;50158;51.528;6.982;2022-12-29T01:21:13;67450;;;9.97;100
51417;BME280;50158;51.528;6.982;2022-12-29T01:22:14;67450;;;9.97;100
51417;BME280;50158;51.528;6.982;2022-12-29T01:23:12;67450;;;10;100
51417;BME280;50158;51.528;6.982;2022-12-29T01:24:14;67460;;;10.05;100
51417;BME280;50158;51.528;6.982;2022-12-29T01:25:13;67460;;;10.1;100
51417;BME280;50158;51.528;6.982;2022-12-29T01:26:13;67460;;;10.09;100
51417;BME280;50158;51.528;6.982;2022-12-29T01:27:12;67470;;;10.14;100
51417;BME280;50158;51.528;6.982;2022-12-29T01:28:13;67470;;;10.14;100
51417;BME280;50158;51.528;6.982;2022-12-29T01:29:12;67470;;;10.13;100
51417;BME280;50158;51.528;6.982;2022-12-29T01:30:13;67480;;;10.26;100
51417;BME280;50158;51.528;6.982;2022-12-29T01:31:13;67480;;;10.27;100
51417;BME280;50158;51.528;6.982;2022-12-29T01:32:12;67480;;;10.27;100
51417;BME280;50158;51.528;6.982;2022-12-29T01:33:13;67480;;;10.25;100
51417;BME280;50158;51.528;6.982;2022-12-29T01:34:12;67490;;;10.33;100
51417;BME280;50158;51.528;6.982;2022-12-29T01:35:13;67480;;;10.28;100
51417;BME280;50158;51.528;6.982;2022-12-29T01:36:13;67490;;;10.31;100
51417;BME280;50158;51.528;6.982;2022-12-29T01:37:12;67490;;;10.33;100
51417;BME280;50158;51.528;6.982;2022-12-29T01:38:13;67490;;;10.36;100
51417;BME280;50158;51.528;6.982;2022-12-29T01:39:13;67490;;;10.37;100
51417;BME280;50158;51.528;6.982;2022-12-29T01:40:13;67500;;;10.41;100
51417;BME280;50158;51.528;6.982;2022-12-29T01:41:13;67490;;;10.35;100
51417;BME280;50158;51.528;6.982;2022-12-29T01:42:15;67500;;;10.39;100
51417;BME280;50158;51.528;6.982;2022-12-29T01:43:13;67500;;;10.39;100
51417;BME280;50158;51.528;6.982;2022-12-29T01:45:14;67500;;;10.45;100
51417;BME280;50158;51.528;6.982;2022-12-29T01:45:18;67500;;;10.4;100
51417;BME280;50158;51.528;6.982;2022-12-29T01:46:36;67500;;;10.43;100
51417;BME280;50158;51.528;6.982;2022-12-29T01:47:15;67500;;;10.45;100
51417;BME280;50158;51.528;6.982;2022-12-29T01:48:14;67500;;;10.46;100
51417;BME280;50158;51.528;6.982;2022-12-29T01:49:14;67500;;;10.47;100
51417;BME280;50158;51.528;6.982;2022-12-29T01:50:16;67500;;;10.46;100
51417;BME280;50158;51.528;6.982;2022-12-29T01:51:13;67510;;;10.49;100
51417;BME280;50158;51.528;6.982;2022-12-29T01:52:12;67510;;;10.48;100
51417;BME280;50158;51.528;6.982;2022-12-29T01:53:15;67520;;;10.64;100
51417;BME280;50158;51.528;6.982;2022-12-29T01:54:13;67530;;;10.7;100
51417;BME280;50158;51.528;6.982;2022-12-29T01:55:12;67540;;;10.76;100
51417;BME280;50158;51.528;6.982;2022-12-29T01:56:14;67540;;;10.78;100
51417;BME280;50158;51.528;6.982;2022-12-29T01:57:13;67540;;;10.8;100
51417;BME280;50158;51.528;6.982;2022-12-29T01:58:12;67570;;;11.13;100
51417;BME280;50158;51.528;6.982;2022-12-29T01:59:15;67570;;;11.09;100
51417;BME280;50158;51.528;6.982;2022-12-29T02:00:13;67550;;;10.93;100
51417;BME280;50158;51.528;6.982;2022-12-29T02:01:13;67550;;;10.89;100
51417;BME280;50158;51.528;6.982;2022-12-29T02:02:12;67540;;;10.84;100
51417;BME280;50158;51.528;6.982;2022-12-29T02:03:12;67550;;;10.88;100
51417;BME280;50158;51.528;6.982;2022-12-29T02:04:13;67550;;;10.87;100
51417;BME280;50158;51.528;6.982;2022-12-29T02:05:15;67550;;;10.94;100
51417;BME280;50158;51.528;6.982;2022-12-29T02:06:15;67560;;;10.98;100
51417;BME280;50158;51.528;6.982;2022-12-29T02:07:21;67560;;;10.95;100
51417;BME280;50158;51.528;6.982;2022-12-29T02:08:12;67550;;;10.9;100
51417;BME280;50158;51.528;6.982;2022-12-29T02:09:13;67560;;;10.95;100
51417;BME280;50158;51.528;6.982;2022-12-29T02:10:12;67560;;;10.99;100
51417;BME280;50158;51.528;6.982;2022-12-29T02:11:13;67560;;;10.97;100
51417;BME280;50158;51.528;6.982;2022-12-29T02:12:12;67570;;;11.04;100
51417;BME280;50158;51.528;6.982;2022-12-29T02:13:16;67570;;;11.09;100
51417;BME280;50158;51.528;6.982;2022-12-29T02:14:13;67560;;;11.01;100
51417;BME280;50158;51.528;6.982;2022-12-29T02:15:13;67570;;;11.12;100
51417;BME280;50158;51.528;6.982;2022-12-29T02:16:20;67630;;;11.6;100
51417;BME280;50158;51.528;6.982;2022-12-29T02:17:20;67610;;;11.47;100
51417;BME280;50158;51.528;6.982;2022-12-29T02:21:18;67610;;;11.43;100
51417;BME280;50158;51.528;6.982;2022-12-29T02:24:23;67610;;;11.4;100
51417;BME280;50158;51.528;6.982;2022-12-29T02:25:22;67610;;;11.45;100
51417;BME280;50158;51.528;6.982;2022-12-29T02:26:48;67610;;;11.48;100
51417;BME280;50158;51.528;6.982;2022-12-29T02:27:24;67620;;;11.56;100
51417;BME280;50158;51.528;6.982;2022-12-29T02:28:20;67630;;;11.61;100
51417;BME280;50158;51.528;6.982;2022-12-29T02:29:22;67630;;;11.66;100
51417;BME280;50158;51.528;6.982;2022-12-29T02:30:16;67630;;;11.6;100
51417;BME280;50158;51.528;6.982;2022-12-29T02:31:17;67630;;;11.62;100
51417;BME280;50158;51.528;6.982;2022-12-29T02:32:18;67620;;;11.57;100
51417;BME280;50158;51.528;6.982;2022-12-29T02:33:17;67630;;;11.63;100
51417;BME280;50158;51.528;6.982;2022-12-29T02:34:54;67630;;;11.59;100
51417;BME280;50158;51.528;6.982;2022-12-29T02:36:15;67640;;;11.71;100
51417;BME280;50158;51.528;6.982;2022-12-29T02:37:52;67640;;;11.72;100
51417;BME280;50158;51.528;6.982;2022-12-29T02:40:17;67640;;;11.72;100
51417;BME280;50158;51.528;6.982;2022-12-29T02:41:21;67660;;;11.92;100
51417;BME280;50158;51.528;6.982;2022-12-29T02:43:16;67650;;;11.81;100
51417;BME280;50158;51.528;6.982;2022-12-29T02:44:15;67640;;;11.75;100
51417;BME280;50158;51.528;6.982;2022-12-29T02:45:15;67640;;;11.73;100
51417;BME280;50158;51.528;6.982;2022-12-29T02:46:19;67640;;;11.67;100
51417;BME280;50158;51.528;6.982;2022-12-29T02:47:16;67630;;;11.59;100
51417;BME280;50158;51.528;6.982;2022-12-29T02:48:29;67610;;;11.48;100
51417;BME280;50158;51.528;6.982;2022-12-29T02:49:15;67620;;;11.52;100
51417;BME280;50158;51.528;6.982;2022-12-29T02:50:23;67620;;;11.56;100
51417;BME280;50158;51.528;6.982;2022-12-29T02:51:20;67620;;;11.53;100
51417;BME280;50158;51.528;6.982;2022-12-29T02:52:23;67610;;;11.46;100
51417;BME280;50158;51.528;6.982;2022-12-29T02:53:14;67640;;;11.69;100
51417;BME280;50158;51.528;6.982;2022-12-29T02:54:12;67630;;;11.64;100
51417;BME280;50158;51.528;6.982;2022-12-29T02:55:12;67630;;;11.6;100
51417;BME280;50158;51.528;6.982;2022-12-29T02:56:13;67630;;;11.6;100
51417;BME280;50158;51.528;6.982;2022-12-29T02:57:26;67620;;;11.51;100
51417;BME280;50158;51.528;6.982;2022-12-29T02:58:18;67620;;;11.5;100
51417;BME280;50158;51.528;6.982;2022-12-29T02:59:12;67610;;;11.45;100
51417;BME280;50158;51.528;6.982;2022-12-29T03:00:14;67620;;;11.57;100
51417;BME280;50158;51.528;6.982;2022-12-29T03:01:17;67630;;;11.64;100
51417;BME280;50158;51.528;6.982;2022-12-29T03:03:18;67640;;;11.71;100
51417;BME280;50158;51.528;6.982;2022-12-29T03:04:17;67650;;;11.81;100
51417;BME280;50158;51.528;6.982;2022-12-29T03:05:17;67650;;;11.82;100
51417;BME280;50158;51.528;6.982;2022-12-29T03:07:15;67660;;;11.88;100
51417;BME280;50158;51.528;6.982;2022-12-29T03:08:18;67650;;;11.79;100
51417;BME280;50158;51.528;6.982;2022-12-29T03:09:19;67650;;;11.77;100
51417;BME280;50158;51.528;6.982;2022-12-29T03:11:13;67630;;;11.63;100
51417;BME280;50158;51.528;6.982;2022-12-29T03:12:14;67620;;;11.5;100
51417;BME280;50158;51.528;6.982;2022-12-29T03:13:17;67610;;;11.45;100
51417;BME280;50158;51.528;6.982;2022-12-29T03:14:47;67600;;;11.37;100
51417;BME280;50158;51.528;6.982;2022-12-29T03:15:16;67600;;;11.4;100
51417;BME280;50158;51.528;6.982;2022-12-29T03:16:16;67600;;;11.39;100
51417;BME280;50158;51.528;6.982;2022-12-29T03:17:17;67600;;;11.38;100
51417;BME280;50158;51.528;6.982;2022-12-29T03:19:30;67590;;;11.3;100
51417;BME280;50158;51.528;6.982;2022-12-29T03:20:14;67600;;;11.37;100
51417;BME280;50158;51.528;6.982;2022-12-29T03:21:17;67610;;;11.46;100
51417;BME280;50158;51.528;6.982;2022-12-29T03:22:14;67610;;;11.49;100
51417;BME280;50158;51.528;6.982;2022-12-29T03:23:12;67660;;;11.91;100
51417;BME280;50158;51.528;6.982;2022-12-29T03:24:13;67730;;;12.57;100
51417;BME280;50158;51.528;6.982;2022-12-29T03:25:21;67690;;;12.15;100
51417;BME280;50158;51.528;6.982;2022-12-29T03:26:13;67650;;;11.8;100
51417;BME280;50158;51.528;6.982;2022-12-29T03:27:13;67630;;;11.67;100
51417;BME280;50158;51.528;6.982;2022-12-29T03:28:17;67630;;;11.62;100
51417;BME280;50158;51.528;6.982;2022-12-29T03:29:13;67620;;;11.49;100
51417;BME280;50158;51.528;6.982;2022-12-29T03:30:13;67610;;;11.46;100
51417;BME280;50158;51.528;6.982;2022-12-29T03:31:12;67620;;;11.57;100
51417;BME280;50158;51.528;6.982;2022-12-29T03:32:12;67630;;;11.65;100
51417;BME280;50158;51.528;6.982;2022-12-29T03:33:14;67620;;;11.55;100
51417;BME280;50158;51.528;6.982;2022-12-29T03:34:13;67630;;;11.64;100
51417;BME280;50158;51.528;6.982;2022-12-29T03:35:14;67640;;;11.73;100
51417;BME280;50158;51.528;6.982;2022-12-29T03:36:15;67650;;;11.79;100
51417;BME280;50158;51.528;6.982;2022-12-29T03:37:13;67650;;;11.83;100
51417;BME280;50158;51.528;6.982;2022-12-29T03:38:46;67650;;;11.8;100
51417;BME280;50158;51.528;6.982;2022-12-29T03:39:12;67650;;;11.82;100
51417;BME280;50158;51.528;6.982;2022-12-29T03:40:12;67650;;;11.8;100
51417;BME280;50158;51.528;6.982;2022-12-29T03:42:13;67650;;;11.8;100
51417;BME280;50158;51.528;6.982;2022-12-29T03:43:13;67660;;;11.87;100
51417;BME280;50158;51.528;6.982;2022-12-29T03:44:12;67640;;;11.76;100
51417;BME280;50158;51.528;6.982;2022-12-29T03:45:13;67650;;;11.79;100
51417;BME280;50158;51.528;6.982;2022-12-29T03:46:12;67650;;;11.83;100
51417;BME280;50158;51.528;6.982;2022-12-29T03:47:13;67640;;;11.77;100
51417;BME280;50158;51.528;6.982;2022-12-29T03:48:12;67650;;;11.77;100
51417;BME280;50158;51.528;6.982;2022-12-29T03:50:12;67660;;;11.89;100
51417;BME280;50158;51.528;6.982;2022-12-29T03:51:12;67660;;;11.89;100
51417;BME280;50158;51.528;6.982;2022-12-29T03:53:13;67660;;;11.97;100
51417;BME280;50158;51.528;6.982;2022-12-29T03:54:13;67670;;;12.02;100
51417;BME280;50158;51.528;6.982;2022-12-29T03:55:13;67670;;;11.96;100
51417;BME280;50158;51.528;6.982;2022-12-29T03:56:12;67670;;;12.01;100
51417;BME280;50158;51.528;6.982;2022-12-29T03:57:13;67670;;;12.01;100
51417;BME280;50158;51.528;6.982;2022-12-29T03:58:13;67660;;;11.92;100
51417;BME280;50158;51.528;6.982;2022-12-29T03:59:12;67650;;;11.83;100
51417;BME280;50158;51.528;6.982;2022-12-29T04:00:13;67640;;;11.74;100
51417;BME280;50158;51.528;6.982;2022-12-29T04:02:12;67640;;;11.73;100
51417;BME280;50158;51.528;6.982;2022-12-29T04:03:12;67630;;;11.67;100
51417;BME280;50158;51.528;6.982;2022-12-29T04:04:13;67630;;;11.66;100
51417;BME280;50158;51.528;6.982;2022-12-29T04:05:13;67630;;;11.68;100
51417;BME280;50158;51.528;6.982;2022-12-29T04:06:13;67640;;;11.74;100
51417;BME280;50158;51.528;6.982;2022-12-29T04:07:13;67640;;;11.73;100
51417;BME280;50158;51.528;6.982;2022-12-29T04:08:13;67640;;;11.72;100
51417;BME280;50158;51.528;6.982;2022-12-29T04:09:12;67630;;;11.66;100
51417;BME280;50158;51.528;6.982;2022-12-29T04:10:13;67640;;;11.71;100
51417;BME280;50158;51.528;6.982;2022-12-29T04:11:12;67640;;;11.73;100
51417;BME280;50158;51.528;6.982;2022-12-29T04:12:13;67640;;;11.68;100
51417;BME280;50158;51.528;6.982;2022-12-29T04:13:13;67640;;;11.74;100
51417;BME280;50158;51.528;6.982;2022-12-29T04:14:13;67650;;;11.83;100
51417;BME280;50158;51.528;6.982;2022-12-29T04:15:13;67650;;;11.83;100
51417;BME280;50158;51.528;6.982;2022-12-29T04:16:13;67650;;;11.77;100
51417;BME280;50158;51.528;6.982;2022-12-29T04:17:12;67650;;;11.82;100
51417;BME280;50158;51.528;6.982;2022-12-29T04:18:13;67650;;;11.8;100
51417;BME280;50158;51.528;6.982;2022-12-29T04:19:12;67650;;;11.8;100
51417;BME280;50158;51.528;6.982;2022-12-29T04:20:12;67660;;;11.89;100
51417;BME280;50158;51.528;6.982;2022-12-29T04:21:12;67660;;;11.86;100
51417;BME280;50158;51.528;6.982;2022-12-29T04:22:12;67650;;;11.78;100
51417;BME280;50158;51.528;6.982;2022-12-29T04:23:15;67650;;;11.82;100
51417;BME280;50158;51.528;6.982;2022-12-29T04:24:13;67640;;;11.75;100
51417;BME280;50158;51.528;6.982;2022-12-29T04:25:12;67640;;;11.74;100
51417;BME280;50158;51.528;6.982;2022-12-29T04:26:13;67630;;;11.66;100
51417;BME280;50158;51.528;6.982;2022-12-29T04:27:13;67630;;;11.67;100
51417;BME280;50158;51.528;6.982;2022-12-29T04:28:13;67650;;;11.79;100
51417;BME280;50158;51.528;6.982;2022-12-29T04:29:12;67650;;;11.84;100
51417;BME280;50158;51.528;6.982;2022-12-29T04:30:12;67650;;;11.79;100
51417;BME280;50158;51.528;6.982;2022-12-29T04:31:12;67660;;;11.91;100
51417;BME280;50158;51.528;6.982;2022-12-29T04:33:13;67650;;;11.83;100
51417;BME280;50158;51.528;6.982;2022-12-29T04:34:13;67660;;;11.95;100
51417;BME280;50158;51.528;6.982;2022-12-29T04:35:13;67670;;;12;100
51417;BME280;50158;51.528;6.982;2022-12-29T04:36:12;67650;;;11.87;100
51417;BME280;50158;51.528;6.982;2022-12-29T04:37:12;67660;;;11.95;100
51417;BME280;50158;51.528;6.982;2022-12-29T04:38:13;67680;;;12.06;100
51417;BME280;50158;51.528;6.982;2022-12-29T04:39:13;67680;;;12.11;100
51417;BME280;50158;51.528;6.982;2022-12-29T04:40:13;67690;;;12.19;100
51417;BME280;50158;51.528;6.982;2022-12-29T04:41:20;67690;;;12.21;100
51417;BME280;50158;51.528;6.982;2022-12-29T04:42:19;67690;;;12.22;100
51417;BME280;50158;51.528;6.982;2022-12-29T04:44:13;67700;;;12.27;100
51417;BME280;50158;51.528;6.982;2022-12-29T04:45:12;67710;;;12.35;100
51417;BME280;50158;51.528;6.982;2022-12-29T04:46:12;67720;;;12.42;100
51417;BME280;50158;51.528;6.982;2022-12-29T04:47:12;67710;;;12.4;100
51417;BME280;50158;51.528;6.982;2022-12-29T04:48:13;67720;;;12.49;100
51417;BME280;50158;51.528;6.982;2022-12-29T04:49:13;67720;;;12.45;100
51417;BME280;50158;51.528;6.982;2022-12-29T04:51:13;67710;;;12.34;100
51417;BME280;50158;51.528;6.982;2022-12-29T04:53:19;67710;;;12.4;100
51417;BME280;50158;51.528;6.982;2022-12-29T04:54:19;67720;;;12.5;100
51417;BME280;50158;51.528;6.982;2022-12-29T04:55:19;67730;;;12.52;100
51417;BME280;50158;51.528;6.982;2022-12-29T04:56:12;67730;;;12.51;100
51417;BME280;50158;51.528;6.982;2022-12-29T04:57:13;67720;;;12.44;100
51417;BME280;50158;51.528;6.982;2022-12-29T04:58:12;67720;;;12.45;100
51417;BME280;50158;51.528;6.982;2022-12-29T04:59:13;67720;;;12.49;100
51417;BME280;50158;51.528;6.982;2022-12-29T05:00:13;67720;;;12.5;100
51417;BME280;50158;51.528;6.982;2022-12-29T05:01:12;67720;;;12.5;100
51417;BME280;50158;51.528;6.982;2022-12-29T05:02:12;67720;;;12.49;100
51417;BME280;50158;51.528;6.982;2022-12-29T05:03:13;67730;;;12.51;100
51417;BME280;50158;51.528;6.982;2022-12-29T05:04:11;67730;;;12.56;100
51417;BME280;50158;51.528;6.982;2022-12-29T05:05:12;67730;;;12.58;100
51417;BME280;50158;51.528;6.982;2022-12-29T05:06:12;67730;;;12.53;100
51417;BME280;50158;51.528;6.982;2022-12-29T05:07:13;67730;;;12.56;100
51417;BME280;50158;51.528;6.982;2022-12-29T05:08:12;67740;;;12.63;100
51417;BME280;50158;51.528;6.982;2022-12-29T05:09:12;67730;;;12.58;100
51417;BME280;50158;51.528;6.982;2022-12-29T05:10:13;67730;;;12.52;100
51417;BME280;50158;51.528;6.982;2022-12-29T05:11:12;67730;;;12.56;100
51417;BME280;50158;51.528;6.982;2022-12-29T05:12:13;67730;;;12.54;100
51417;BME280;50158;51.528;6.982;2022-12-29T05:13:13;67730;;;12.54;100
51417;BME280;50158;51.528;6.982;2022-12-29T05:14:12;67730;;;12.59;100
51417;BME280;50158;51.528;6.982;2022-12-29T05:15:13;67740;;;12.59;100
51417;BME280;50158;51.528;6.982;2022-12-29T05:16:12;67720;;;12.5;100
51417;BME280;50158;51.528;6.982;2022-12-29T05:17:13;67730;;;12.53;100
51417;BME280;50158;51.528;6.982;2022-12-29T05:18:13;67720;;;12.5;100
51417;BME280;50158;51.528;6.982;2022-12-29T05:19:12;67720;;;12.47;100
51417;BME280;50158;51.528;6.982;2022-12-29T05:20:12;67720;;;12.48;100
51417;BME280;50158;51.528;6.982;2022-12-29T05:21:12;67720;;;12.45;100
51417;BME280;50158;51.528;6.982;2022-12-29T05:22:12;67720;;;12.49;100
51417;BME280;50158;51.528;6.982;2022-12-29T05:23:07;67720;;;12.48;100
51417;BME280;50158;51.528;6.982;2022-12-29T05:24:13;67720;;;12.42;100
51417;BME280;50158;51.528;6.982;2022-12-29T05:25:12;67720;;;12.42;100
51417;BME280;50158;51.528;6.982;2022-12-29T05:26:13;67720;;;12.42;100
51417;BME280;50158;51.528;6.982;2022-12-29T05:27:13;67710;;;12.35;100
51417;BME280;50158;51.528;6.982;2022-12-29T05:28:12;67710;;;12.33;100
51417;BME280;50158;51.528;6.982;2022-12-29T05:29:12;67710;;;12.42;100
51417;BME280;50158;51.528;6.982;2022-12-29T05:30:14;67720;;;12.47;100
51417;BME280;50158;51.528;6.982;2022-12-29T05:31:12;67710;;;12.39;100
51417;BME280;50158;51.528;6.982;2022-12-29T05:32:12;67710;;;12.4;100
51417;BME280;50158;51.528;6.982;2022-12-29T05:33:12;67690;;;12.15;100
51417;BME280;50158;51.528;6.982;2022-12-29T05:34:12;67660;;;11.88;100
51417;BME280;50158;51.528;6.982;2022-12-29T05:35:13;67630;;;11.6;100
51417;BME280;50158;51.528;6.982;2022-12-29T05:36:12;67610;;;11.49;100
51417;BME280;50158;51.528;6.982;2022-12-29T05:37:13;67600;;;11.31;100
51417;BME280;50158;51.528;6.982;2022-12-29T05:38:12;67590;;;11.22;100
51417;BME280;50158;51.528;6.982;2022-12-29T05:39:12;67580;;;11.16;100
51417;BME280;50158;51.528;6.982;2022-12-29T05:41:12;67600;;;11.37;100
51417;BME280;50158;51.528;6.982;2022-12-29T05:42:12;67610;;;11.44;100
51417;BME280;50158;51.528;6.982;2022-12-29T05:43:13;67620;;;11.54;100
51417;BME280;50158;51.528;6.982;2022-12-29T05:44:12;67630;;;11.61;100
51417;BME280;50158;51.528;6.982;2022-12-29T05:45:13;67630;;;11.64;100
51417;BME280;50158;51.528;6.982;2022-12-29T05:46:12;67630;;;11.62;100
51417;BME280;50158;51.528;6.982;2022-12-29T05:47:12;67640;;;11.68;100
51417;BME280;50158;51.528;6.982;2022-12-29T05:48:13;67640;;;11.74;100
51417;BME280;50158;51.528;6.982;2022-12-29T05:49:13;67680;;;12.14;100
51417;BME280;50158;51.528;6.982;2022-12-29T05:50:13;67690;;;12.21;100
51417;BME280;50158;51.528;6.982;2022-12-29T05:51:12;67680;;;12.1;100
51417;BME280;50158;51.528;6.982;2022-12-29T05:52:12;67680;;;12.08;100
51417;BME280;50158;51.528;6.982;2022-12-29T05:53:12;67660;;;11.94;100
51417;BME280;50158;51.528;6.982;2022-12-29T05:54:13;67660;;;11.91;100
51417;BME280;50158;51.528;6.982;2022-12-29T05:55:11;67660;;;11.91;100
51417;BME280;50158;51.528;6.982;2022-12-29T05:56:12;67660;;;11.88;100
51417;BME280;50158;51.528;6.982;2022-12-29T05:57:13;67660;;;11.9;100
51417;BME280;50158;51.528;6.982;2022-12-29T05:58:13;67660;;;11.9;100
51417;BME280;50158;51.528;6.982;2022-12-29T05:59:13;67670;;;11.97;100
51417;BME280;50158;51.528;6.982;2022-12-29T06:00:12;67660;;;11.85;100
51417;BME280;50158;51.528;6.982;2022-12-29T06:01:13;67650;;;11.83;100
51417;BME280;50158;51.528;6.982;2022-12-29T06:02:12;67660;;;11.9;100
51417;BME280;50158;51.528;6.982;2022-12-29T06:03:13;67660;;;11.88;100
51417;BME280;50158;51.528;6.982;2022-12-29T06:04:12;67650;;;11.82;100
51417;BME280;50158;51.528;6.982;2022-12-29T06:05:13;67660;;;11.95;100